sensor_id;sensor_type;location;lat;lon;timestamp;P1;durP1;ratioP1;P2;durP2;ratioP2
82635;SDS011;72317;37.280;-121.948;2023-10-08T00:00:26;1.75;;;1.50;;
82635;SDS011;72317;37.280;-121.948;2023-10-08T00:03:11;3.47;;;2.13;;
82635;SDS011;72317;37.280;-121.948;2023-10-08T00:05:39;3.55;;;1.98;;
82635;SDS011;72317;37.280;-121.948;2023-10-08T00:08:06;7.05;;;2.00;;
82635;SDS011;72317;37.280;-121.948;2023-10-08T00:10:38;3.50;;;1.88;;
82635;SDS011;72317;37.280;-121.948;2023-10-08T00:13:08;4.10;;;1.88;;
82635;SDS011;72317;37.280;-121.948;2023-10-08T00:15:41;5.05;;;1.90;;
82635;SDS011;72317;37.280;-121.948;2023-10-08T00:18:21;3.15;;;1.85;;
82635;SDS011;72317;37.280;-121.948;2023-10-08T00:20:49;3.30;;;1.85;;
82635;SDS011;72317;37.280;-121.948;2023-10-08T00:23:23;4.03;;;1.60;;
82635;SDS011;72317;37.280;-121.948;2023-10-08T00:26:12;4.07;;;2.10;;
82635;SDS011;72317;37.280;-121.948;2023-10-08T00:28:41;3.75;;;1.77;;
82635;SDS011;72317;37.280;-121.948;2023-10-08T00:31:07;2.85;;;1.70;;
82635;SDS011;72317;37.280;-121.948;2023-10-08T00:33:37;3.25;;;1.80;;
82635;SDS011;72317;37.280;-121.948;2023-10-08T00:36:04;4.00;;;1.90;;
82635;SDS011;72317;37.280;-121.948;2023-10-08T00:38:46;7.63;;;2.33;;
82635;SDS011;72317;37.280;-121.948;2023-10-08T00:41:17;3.15;;;2.10;;
82635;SDS011;72317;37.280;-121.948;2023-10-08T00:43:47;2.20;;;2.00;;
82635;SDS011;72317;37.280;-121.948;2023-10-08T00:46:14;2.40;;;2.03;;
82635;SDS011;72317;37.280;-121.948;2023-10-08T00:48:48;2.53;;;2.00;;
82635;SDS011;72317;37.280;-121.948;2023-10-08T00:51:18;4.38;;;2.00;;
82635;SDS011;72317;37.280;-121.948;2023-10-08T00:54:01;7.95;;;2.00;;
82635;SDS011;72317;37.280;-121.948;2023-10-08T00:56:33;3.40;;;2.10;;
82635;SDS011;72317;37.280;-121.948;2023-10-08T00:59:21;4.10;;;1.92;;
82635;SDS011;72317;37.280;-121.948;2023-10-08T01:01:49;3.92;;;2.10;;
82635;SDS011;72317;37.280;-121.948;2023-10-08T01:04:31;2.80;;;2.20;;
82635;SDS011;72317;37.280;-121.948;2023-10-08T01:07:02;4.30;;;2.10;;
82635;SDS011;72317;37.280;-121.948;2023-10-08T01:09:37;2.78;;;1.77;;
82635;SDS011;72317;37.280;-121.948;2023-10-08T01:14:45;2.63;;;1.60;;
82635;SDS011;72317;37.280;-121.948;2023-10-08T01:17:13;2.08;;;1.45;;
82635;SDS011;72317;37.280;-121.948;2023-10-08T01:19:44;3.53;;;1.65;;
82635;SDS011;72317;37.280;-121.948;2023-10-08T01:22:22;2.92;;;2.00;;
82635;SDS011;72317;37.280;-121.948;2023-10-08T01:24:50;3.25;;;1.80;;
82635;SDS011;72317;37.280;-121.948;2023-10-08T01:27:19;3.70;;;1.60;;
82635;SDS011;72317;37.280;-121.948;2023-10-08T01:29:52;6.05;;;2.67;;
82635;SDS011;72317;37.280;-121.948;2023-10-08T01:32:18;3.38;;;2.53;;
82635;SDS011;72317;37.280;-121.948;2023-10-08T01:34:47;7.57;;;3.25;;
82635;SDS011;72317;37.280;-121.948;2023-10-08T01:37:13;4.13;;;2.50;;
82635;SDS011;72317;37.280;-121.948;2023-10-08T01:39:47;6.18;;;2.25;;
82635;SDS011;72317;37.280;-121.948;2023-10-08T01:42:18;4.78;;;2.60;;
82635;SDS011;72317;37.280;-121.948;2023-10-08T01:44:48;4.55;;;2.33;;
82635;SDS011;72317;37.280;-121.948;2023-10-08T01:47:20;6.28;;;2.50;;
82635;SDS011;72317;37.280;-121.948;2023-10-08T01:49:50;4.82;;;2.70;;
82635;SDS011;72317;37.280;-121.948;2023-10-08T01:52:23;3.33;;;2.40;;
82635;SDS011;72317;37.280;-121.948;2023-10-08T01:54:50;6.82;;;2.20;;
82635;SDS011;72317;37.280;-121.948;2023-10-08T01:57:19;3.67;;;2.50;;
82635;SDS011;72317;37.280;-121.948;2023-10-08T01:59:45;3.70;;;2.60;;
82635;SDS011;72317;37.280;-121.948;2023-10-08T02:02:11;3.17;;;2.40;;
82635;SDS011;72317;37.280;-121.948;2023-10-08T02:04:40;4.20;;;2.30;;
82635;SDS011;72317;37.280;-121.948;2023-10-08T02:07:07;3.20;;;2.55;;
82635;SDS011;72317;37.280;-121.948;2023-10-08T02:09:34;5.55;;;2.55;;
82635;SDS011;72317;37.280;-121.948;2023-10-08T02:12:00;3.53;;;2.28;;
82635;SDS011;72317;37.280;-121.948;2023-10-08T02:14:26;3.50;;;2.20;;
82635;SDS011;72317;37.280;-121.948;2023-10-08T02:16:57;4.68;;;2.60;;
82635;SDS011;72317;37.280;-121.948;2023-10-08T02:19:29;3.70;;;2.58;;
82635;SDS011;72317;37.280;-121.948;2023-10-08T02:21:56;3.30;;;2.30;;
82635;SDS011;72317;37.280;-121.948;2023-10-08T02:24:24;3.72;;;2.75;;
82635;SDS011;72317;37.280;-121.948;2023-10-08T02:26:51;3.53;;;2.65;;
82635;SDS011;72317;37.280;-121.948;2023-10-08T02:29:18;4.78;;;3.10;;
82635;SDS011;72317;37.280;-121.948;2023-10-08T02:31:44;5.97;;;3.20;;
82635;SDS011;72317;37.280;-121.948;2023-10-08T02:34:11;5.10;;;3.05;;
82635;SDS011;72317;37.280;-121.948;2023-10-08T02:36:38;4.70;;;2.95;;
82635;SDS011;72317;37.280;-121.948;2023-10-08T02:39:08;5.50;;;3.08;;
82635;SDS011;72317;37.280;-121.948;2023-10-08T02:41:47;7.88;;;3.42;;
82635;SDS011;72317;37.280;-121.948;2023-10-08T02:44:15;5.60;;;3.50;;
82635;SDS011;72317;37.280;-121.948;2023-10-08T02:46:42;5.72;;;3.03;;
82635;SDS011;72317;37.280;-121.948;2023-10-08T02:49:12;6.55;;;2.75;;
82635;SDS011;72317;37.280;-121.948;2023-10-08T02:51:46;6.43;;;2.67;;
82635;SDS011;72317;37.280;-121.948;2023-10-08T02:54:18;4.82;;;2.60;;
82635;SDS011;72317;37.280;-121.948;2023-10-08T02:56:56;4.47;;;2.83;;
82635;SDS011;72317;37.280;-121.948;2023-10-08T02:59:33;5.13;;;2.80;;
82635;SDS011;72317;37.280;-121.948;2023-10-08T03:02:13;4.82;;;2.90;;
82635;SDS011;72317;37.280;-121.948;2023-10-08T03:04:44;5.10;;;3.17;;
82635;SDS011;72317;37.280;-121.948;2023-10-08T03:07:14;5.35;;;3.30;;
82635;SDS011;72317;37.280;-121.948;2023-10-08T03:09:52;5.40;;;3.10;;
82635;SDS011;72317;37.280;-121.948;2023-10-08T03:12:34;4.50;;;2.85;;
82635;SDS011;72317;37.280;-121.948;2023-10-08T03:15:04;5.43;;;3.15;;
82635;SDS011;72317;37.280;-121.948;2023-10-08T03:17:53;5.88;;;3.40;;
82635;SDS011;72317;37.280;-121.948;2023-10-08T03:20:22;6.63;;;3.05;;
82635;SDS011;72317;37.280;-121.948;2023-10-08T03:23:09;4.55;;;2.88;;
82635;SDS011;72317;37.280;-121.948;2023-10-08T03:25:52;6.57;;;3.30;;
82635;SDS011;72317;37.280;-121.948;2023-10-08T03:28:42;5.65;;;3.40;;
82635;SDS011;72317;37.280;-121.948;2023-10-08T03:31:08;6.05;;;3.70;;
82635;SDS011;72317;37.280;-121.948;2023-10-08T03:33:43;6.35;;;3.65;;
82635;SDS011;72317;37.280;-121.948;2023-10-08T03:36:14;8.00;;;3.95;;
82635;SDS011;72317;37.280;-121.948;2023-10-08T03:38:46;7.70;;;3.70;;
82635;SDS011;72317;37.280;-121.948;2023-10-08T03:41:25;5.78;;;3.65;;
82635;SDS011;72317;37.280;-121.948;2023-10-08T03:43:57;5.78;;;3.95;;
82635;SDS011;72317;37.280;-121.948;2023-10-08T03:46:28;4.50;;;3.58;;
82635;SDS011;72317;37.280;-121.948;2023-10-08T03:48:54;5.97;;;3.58;;
82635;SDS011;72317;37.280;-121.948;2023-10-08T03:51:25;5.75;;;3.30;;
82635;SDS011;72317;37.280;-121.948;2023-10-08T03:53:53;4.72;;;3.05;;
82635;SDS011;72317;37.280;-121.948;2023-10-08T03:56:34;4.70;;;3.53;;
82635;SDS011;72317;37.280;-121.948;2023-10-08T03:59:02;8.43;;;6.28;;
82635;SDS011;72317;37.280;-121.948;2023-10-08T04:01:39;8.18;;;4.57;;
82635;SDS011;72317;37.280;-121.948;2023-10-08T04:04:08;6.10;;;4.10;;
82635;SDS011;72317;37.280;-121.948;2023-10-08T04:06:39;6.63;;;4.03;;
82635;SDS011;72317;37.280;-121.948;2023-10-08T04:09:15;6.68;;;3.80;;
82635;SDS011;72317;37.280;-121.948;2023-10-08T04:11:43;5.78;;;3.60;;
82635;SDS011;72317;37.280;-121.948;2023-10-08T04:14:13;8.23;;;4.20;;
82635;SDS011;72317;37.280;-121.948;2023-10-08T04:16:41;8.15;;;3.92;;
82635;SDS011;72317;37.280;-121.948;2023-10-08T04:19:08;6.30;;;3.67;;
82635;SDS011;72317;37.280;-121.948;2023-10-08T04:21:35;4.47;;;3.60;;
82635;SDS011;72317;37.280;-121.948;2023-10-08T04:24:01;10.35;;;3.70;;
82635;SDS011;72317;37.280;-121.948;2023-10-08T04:26:31;5.97;;;3.47;;
82635;SDS011;72317;37.280;-121.948;2023-10-08T04:28:58;6.50;;;3.65;;
82635;SDS011;72317;37.280;-121.948;2023-10-08T04:31:32;5.72;;;3.10;;
82635;SDS011;72317;37.280;-121.948;2023-10-08T04:34:05;5.97;;;2.92;;
82635;SDS011;72317;37.280;-121.948;2023-10-08T04:36:44;6.65;;;3.15;;
82635;SDS011;72317;37.280;-121.948;2023-10-08T04:39:12;8.23;;;3.25;;
82635;SDS011;72317;37.280;-121.948;2023-10-08T04:41:46;4.97;;;3.30;;
82635;SDS011;72317;37.280;-121.948;2023-10-08T04:44:19;5.65;;;3.30;;
82635;SDS011;72317;37.280;-121.948;2023-10-08T04:46:47;6.88;;;3.60;;
82635;SDS011;72317;37.280;-121.948;2023-10-08T04:49:17;5.57;;;3.40;;
82635;SDS011;72317;37.280;-121.948;2023-10-08T04:51:46;5.75;;;3.53;;
82635;SDS011;72317;37.280;-121.948;2023-10-08T04:54:14;5.50;;;3.38;;
82635;SDS011;72317;37.280;-121.948;2023-10-08T04:56:43;7.10;;;3.65;;
82635;SDS011;72317;37.280;-121.948;2023-10-08T04:59:10;5.32;;;3.33;;
82635;SDS011;72317;37.280;-121.948;2023-10-08T05:01:37;6.55;;;3.55;;
82635;SDS011;72317;37.280;-121.948;2023-10-08T05:04:06;7.70;;;3.50;;
82635;SDS011;72317;37.280;-121.948;2023-10-08T05:06:48;5.78;;;3.28;;
82635;SDS011;72317;37.280;-121.948;2023-10-08T05:09:27;5.22;;;3.15;;
82635;SDS011;72317;37.280;-121.948;2023-10-08T05:12:13;6.95;;;3.95;;
82635;SDS011;72317;37.280;-121.948;2023-10-08T05:15:00;6.72;;;3.75;;
82635;SDS011;72317;37.280;-121.948;2023-10-08T05:17:42;8.38;;;3.78;;
82635;SDS011;72317;37.280;-121.948;2023-10-08T05:20:18;6.97;;;3.70;;
82635;SDS011;72317;37.280;-121.948;2023-10-08T05:23:11;6.93;;;3.75;;
82635;SDS011;72317;37.280;-121.948;2023-10-08T05:25:47;6.35;;;3.67;;
82635;SDS011;72317;37.280;-121.948;2023-10-08T05:28:35;6.65;;;3.80;;
82635;SDS011;72317;37.280;-121.948;2023-10-08T05:31:22;7.15;;;3.60;;
82635;SDS011;72317;37.280;-121.948;2023-10-08T05:34:07;6.50;;;3.85;;
82635;SDS011;72317;37.280;-121.948;2023-10-08T05:36:42;5.88;;;3.45;;
82635;SDS011;72317;37.280;-121.948;2023-10-08T05:39:29;5.97;;;3.33;;
82635;SDS011;72317;37.280;-121.948;2023-10-08T05:42:08;4.40;;;3.40;;
82635;SDS011;72317;37.280;-121.948;2023-10-08T05:44:44;5.40;;;3.70;;
82635;SDS011;72317;37.280;-121.948;2023-10-08T05:47:29;5.85;;;3.83;;
82635;SDS011;72317;37.280;-121.948;2023-10-08T05:49:58;6.00;;;3.67;;
82635;SDS011;72317;37.280;-121.948;2023-10-08T05:52:43;7.72;;;3.67;;
82635;SDS011;72317;37.280;-121.948;2023-10-08T05:55:30;10.05;;;4.00;;
82635;SDS011;72317;37.280;-121.948;2023-10-08T05:58:05;6.03;;;3.40;;
82635;SDS011;72317;37.280;-121.948;2023-10-08T06:00:45;6.40;;;3.90;;
82635;SDS011;72317;37.280;-121.948;2023-10-08T06:03:16;6.85;;;3.92;;
82635;SDS011;72317;37.280;-121.948;2023-10-08T06:06:02;4.95;;;3.80;;
82635;SDS011;72317;37.280;-121.948;2023-10-08T06:08:48;5.88;;;4.13;;
82635;SDS011;72317;37.280;-121.948;2023-10-08T06:11:33;7.35;;;3.67;;
82635;SDS011;72317;37.280;-121.948;2023-10-08T06:14:09;7.95;;;4.20;;
82635;SDS011;72317;37.280;-121.948;2023-10-08T06:16:44;4.80;;;4.03;;
82635;SDS011;72317;37.280;-121.948;2023-10-08T06:19:15;6.40;;;4.25;;
82635;SDS011;72317;37.280;-121.948;2023-10-08T06:21:41;7.80;;;4.68;;
82635;SDS011;72317;37.280;-121.948;2023-10-08T06:24:08;7.28;;;4.10;;
82635;SDS011;72317;37.280;-121.948;2023-10-08T06:26:36;7.28;;;4.40;;
82635;SDS011;72317;37.280;-121.948;2023-10-08T06:29:11;6.18;;;4.40;;
82635;SDS011;72317;37.280;-121.948;2023-10-08T06:31:53;7.10;;;4.40;;
82635;SDS011;72317;37.280;-121.948;2023-10-08T06:34:21;8.15;;;4.75;;
82635;SDS011;72317;37.280;-121.948;2023-10-08T06:36:53;9.65;;;5.55;;
82635;SDS011;72317;37.280;-121.948;2023-10-08T06:39:21;7.50;;;5.18;;
82635;SDS011;72317;37.280;-121.948;2023-10-08T06:41:58;10.90;;;5.20;;
82635;SDS011;72317;37.280;-121.948;2023-10-08T06:44:25;6.97;;;4.53;;
82635;SDS011;72317;37.280;-121.948;2023-10-08T06:46:53;7.35;;;4.50;;
82635;SDS011;72317;37.280;-121.948;2023-10-08T06:49:21;5.78;;;4.03;;
82635;SDS011;72317;37.280;-121.948;2023-10-08T06:51:50;6.60;;;3.95;;
82635;SDS011;72317;37.280;-121.948;2023-10-08T06:54:18;5.50;;;3.40;;
82635;SDS011;72317;37.280;-121.948;2023-10-08T06:56:45;5.57;;;3.53;;
82635;SDS011;72317;37.280;-121.948;2023-10-08T06:59:17;3.95;;;3.33;;
82635;SDS011;72317;37.280;-121.948;2023-10-08T07:01:47;6.53;;;3.30;;
82635;SDS011;72317;37.280;-121.948;2023-10-08T07:04:16;5.18;;;3.65;;
82635;SDS011;72317;37.280;-121.948;2023-10-08T07:06:44;5.60;;;3.55;;
82635;SDS011;72317;37.280;-121.948;2023-10-08T07:09:17;6.22;;;3.17;;
82635;SDS011;72317;37.280;-121.948;2023-10-08T07:11:52;4.15;;;3.42;;
82635;SDS011;72317;37.280;-121.948;2023-10-08T07:14:23;6.00;;;3.40;;
82635;SDS011;72317;37.280;-121.948;2023-10-08T07:16:53;5.65;;;3.15;;
82635;SDS011;72317;37.280;-121.948;2023-10-08T07:19:21;4.45;;;3.38;;
82635;SDS011;72317;37.280;-121.948;2023-10-08T07:21:49;6.05;;;3.40;;
82635;SDS011;72317;37.280;-121.948;2023-10-08T07:24:19;5.45;;;3.17;;
82635;SDS011;72317;37.280;-121.948;2023-10-08T07:26:47;3.97;;;2.67;;
82635;SDS011;72317;37.280;-121.948;2023-10-08T07:29:15;4.63;;;2.45;;
82635;SDS011;72317;37.280;-121.948;2023-10-08T07:31:43;4.60;;;2.25;;
82635;SDS011;72317;37.280;-121.948;2023-10-08T07:34:18;3.80;;;2.10;;
82635;SDS011;72317;37.280;-121.948;2023-10-08T07:36:51;3.05;;;2.25;;
82635;SDS011;72317;37.280;-121.948;2023-10-08T07:39:20;3.45;;;2.38;;
82635;SDS011;72317;37.280;-121.948;2023-10-08T07:41:53;4.95;;;2.35;;
82635;SDS011;72317;37.280;-121.948;2023-10-08T07:44:20;4.88;;;2.20;;
82635;SDS011;72317;37.280;-121.948;2023-10-08T07:46:50;3.67;;;2.40;;
82635;SDS011;72317;37.280;-121.948;2023-10-08T07:49:21;2.00;;;1.85;;
82635;SDS011;72317;37.280;-121.948;2023-10-08T07:51:49;3.67;;;2.10;;
82635;SDS011;72317;37.280;-121.948;2023-10-08T07:54:18;2.20;;;2.00;;
82635;SDS011;72317;37.280;-121.948;2023-10-08T07:56:51;4.28;;;2.10;;
82635;SDS011;72317;37.280;-121.948;2023-10-08T07:59:22;2.63;;;2.40;;
82635;SDS011;72317;37.280;-121.948;2023-10-08T08:01:49;4.47;;;2.20;;
82635;SDS011;72317;37.280;-121.948;2023-10-08T08:04:19;2.20;;;1.90;;
82635;SDS011;72317;37.280;-121.948;2023-10-08T08:06:48;3.53;;;2.20;;
82635;SDS011;72317;37.280;-121.948;2023-10-08T08:09:18;3.95;;;2.15;;
82635;SDS011;72317;37.280;-121.948;2023-10-08T08:11:45;5.07;;;2.10;;
82635;SDS011;72317;37.280;-121.948;2023-10-08T08:14:15;3.05;;;2.10;;
82635;SDS011;72317;37.280;-121.948;2023-10-08T08:16:42;3.53;;;2.13;;
82635;SDS011;72317;37.280;-121.948;2023-10-08T08:19:14;5.43;;;2.47;;
82635;SDS011;72317;37.280;-121.948;2023-10-08T08:21:42;3.28;;;2.47;;
82635;SDS011;72317;37.280;-121.948;2023-10-08T08:24:11;5.72;;;2.08;;
82635;SDS011;72317;37.280;-121.948;2023-10-08T08:26:38;5.25;;;2.78;;
82635;SDS011;72317;37.280;-121.948;2023-10-08T08:29:06;4.00;;;2.20;;
82635;SDS011;72317;37.280;-121.948;2023-10-08T08:31:34;4.60;;;2.30;;
82635;SDS011;72317;37.280;-121.948;2023-10-08T08:34:02;4.18;;;2.33;;
82635;SDS011;72317;37.280;-121.948;2023-10-08T08:36:33;5.30;;;2.58;;
82635;SDS011;72317;37.280;-121.948;2023-10-08T08:39:04;3.22;;;2.10;;
82635;SDS011;72317;37.280;-121.948;2023-10-08T08:41:36;4.75;;;2.00;;
82635;SDS011;72317;37.280;-121.948;2023-10-08T08:44:03;3.03;;;2.30;;
82635;SDS011;72317;37.280;-121.948;2023-10-08T08:46:32;4.03;;;2.72;;
82635;SDS011;72317;37.280;-121.948;2023-10-08T08:49:04;5.38;;;2.65;;
82635;SDS011;72317;37.280;-121.948;2023-10-08T08:51:33;4.95;;;3.03;;
82635;SDS011;72317;37.280;-121.948;2023-10-08T08:54:01;4.80;;;2.85;;
82635;SDS011;72317;37.280;-121.948;2023-10-08T08:56:34;5.68;;;3.17;;
82635;SDS011;72317;37.280;-121.948;2023-10-08T08:59:06;7.18;;;3.10;;
82635;SDS011;72317;37.280;-121.948;2023-10-08T09:01:39;4.90;;;3.28;;
82635;SDS011;72317;37.280;-121.948;2023-10-08T09:04:07;5.82;;;3.03;;
82635;SDS011;72317;37.280;-121.948;2023-10-08T09:06:37;4.97;;;2.70;;
82635;SDS011;72317;37.280;-121.948;2023-10-08T09:09:03;5.28;;;2.70;;
82635;SDS011;72317;37.280;-121.948;2023-10-08T09:11:59;6.28;;;2.85;;
82635;SDS011;72317;37.280;-121.948;2023-10-08T09:14:26;6.13;;;3.00;;
82635;SDS011;72317;37.280;-121.948;2023-10-08T09:16:57;5.78;;;2.55;;
82635;SDS011;72317;37.280;-121.948;2023-10-08T09:19:25;4.45;;;2.80;;
82635;SDS011;72317;37.280;-121.948;2023-10-08T09:22:01;4.85;;;2.63;;
82635;SDS011;72317;37.280;-121.948;2023-10-08T09:24:35;4.93;;;2.70;;
82635;SDS011;72317;37.280;-121.948;2023-10-08T09:27:06;4.82;;;2.75;;
82635;SDS011;72317;37.280;-121.948;2023-10-08T09:29:36;3.40;;;2.30;;
82635;SDS011;72317;37.280;-121.948;2023-10-08T09:32:05;5.60;;;2.42;;
82635;SDS011;72317;37.280;-121.948;2023-10-08T09:34:34;3.95;;;2.35;;
82635;SDS011;72317;37.280;-121.948;2023-10-08T09:37:00;4.88;;;2.40;;
82635;SDS011;72317;37.280;-121.948;2023-10-08T09:39:27;4.22;;;2.28;;
82635;SDS011;72317;37.280;-121.948;2023-10-08T09:41:56;2.95;;;2.40;;
82635;SDS011;72317;37.280;-121.948;2023-10-08T09:44:23;4.75;;;2.60;;
82635;SDS011;72317;37.280;-121.948;2023-10-08T09:46:54;3.10;;;2.40;;
82635;SDS011;72317;37.280;-121.948;2023-10-08T09:49:30;3.58;;;2.58;;
82635;SDS011;72317;37.280;-121.948;2023-10-08T09:52:07;4.63;;;2.47;;
82635;SDS011;72317;37.280;-121.948;2023-10-08T09:55:35;5.25;;;2.50;;
82635;SDS011;72317;37.280;-121.948;2023-10-08T09:57:38;4.45;;;2.38;;
82635;SDS011;72317;37.280;-121.948;2023-10-08T10:00:05;4.82;;;2.38;;
82635;SDS011;72317;37.280;-121.948;2023-10-08T10:02:43;7.20;;;2.58;;
82635;SDS011;72317;37.280;-121.948;2023-10-08T10:05:13;20.27;;;4.90;;
82635;SDS011;72317;37.280;-121.948;2023-10-08T10:07:49;13.07;;;4.38;;
82635;SDS011;72317;37.280;-121.948;2023-10-08T10:10:33;22.90;;;5.63;;
82635;SDS011;72317;37.280;-121.948;2023-10-08T10:13:04;19.13;;;4.97;;
82635;SDS011;72317;37.280;-121.948;2023-10-08T10:15:33;30.85;;;7.18;;
82635;SDS011;72317;37.280;-121.948;2023-10-08T10:20:44;20.02;;;5.57;;
82635;SDS011;72317;37.280;-121.948;2023-10-08T10:26:03;6.53;;;2.75;;
82635;SDS011;72317;37.280;-121.948;2023-10-08T10:28:29;6.07;;;2.90;;
82635;SDS011;72317;37.280;-121.948;2023-10-08T10:30:56;3.58;;;2.15;;
82635;SDS011;72317;37.280;-121.948;2023-10-08T10:33:30;4.63;;;2.33;;
82635;SDS011;72317;37.280;-121.948;2023-10-08T10:35:57;6.45;;;2.58;;
82635;SDS011;72317;37.280;-121.948;2023-10-08T10:38:25;9.80;;;3.03;;
82635;SDS011;72317;37.280;-121.948;2023-10-08T10:40:52;15.23;;;3.85;;
82635;SDS011;72317;37.280;-121.948;2023-10-08T10:43:34;10.00;;;2.78;;
82635;SDS011;72317;37.280;-121.948;2023-10-08T10:46:02;22.92;;;5.50;;
82635;SDS011;72317;37.280;-121.948;2023-10-08T10:48:48;11.57;;;3.85;;
82635;SDS011;72317;37.280;-121.948;2023-10-08T10:51:43;17.65;;;4.55;;
82635;SDS011;72317;37.280;-121.948;2023-10-08T10:54:11;24.05;;;4.90;;
82635;SDS011;72317;37.280;-121.948;2023-10-08T10:56:45;13.55;;;3.90;;
82635;SDS011;72317;37.280;-121.948;2023-10-08T10:59:13;12.43;;;3.53;;
82635;SDS011;72317;37.280;-121.948;2023-10-08T11:01:52;4.63;;;2.72;;
82635;SDS011;72317;37.280;-121.948;2023-10-08T11:04:31;3.47;;;2.38;;
82635;SDS011;72317;37.280;-121.948;2023-10-08T11:06:59;4.60;;;2.45;;
82635;SDS011;72317;37.280;-121.948;2023-10-08T11:09:26;4.85;;;2.60;;
82635;SDS011;72317;37.280;-121.948;2023-10-08T11:12:03;4.45;;;2.55;;
82635;SDS011;72317;37.280;-121.948;2023-10-08T11:14:41;4.47;;;2.80;;
82635;SDS011;72317;37.280;-121.948;2023-10-08T11:17:15;4.32;;;2.90;;
82635;SDS011;72317;37.280;-121.948;2023-10-08T11:19:43;5.57;;;2.30;;
82635;SDS011;72317;37.280;-121.948;2023-10-08T11:22:16;4.40;;;2.80;;
82635;SDS011;72317;37.280;-121.948;2023-10-08T11:24:44;4.72;;;2.50;;
82635;SDS011;72317;37.280;-121.948;2023-10-08T11:27:18;3.80;;;2.70;;
82635;SDS011;72317;37.280;-121.948;2023-10-08T11:29:55;4.35;;;2.50;;
82635;SDS011;72317;37.280;-121.948;2023-10-08T11:32:26;3.92;;;2.28;;
82635;SDS011;72317;37.280;-121.948;2023-10-08T11:34:55;3.83;;;2.53;;
82635;SDS011;72317;37.280;-121.948;2023-10-08T11:37:28;2.88;;;2.50;;
82635;SDS011;72317;37.280;-121.948;2023-10-08T11:39:58;4.65;;;2.42;;
82635;SDS011;72317;37.280;-121.948;2023-10-08T11:42:34;3.33;;;2.60;;
82635;SDS011;72317;37.280;-121.948;2023-10-08T11:45:00;3.63;;;2.60;;
82635;SDS011;72317;37.280;-121.948;2023-10-08T11:47:45;3.72;;;2.40;;
82635;SDS011;72317;37.280;-121.948;2023-10-08T11:50:16;4.15;;;2.35;;
82635;SDS011;72317;37.280;-121.948;2023-10-08T11:52:45;4.00;;;2.45;;
82635;SDS011;72317;37.280;-121.948;2023-10-08T11:55:11;3.40;;;2.67;;
82635;SDS011;72317;37.280;-121.948;2023-10-08T11:57:45;2.78;;;2.10;;
82635;SDS011;72317;37.280;-121.948;2023-10-08T12:00:15;4.38;;;2.42;;
82635;SDS011;72317;37.280;-121.948;2023-10-08T12:02:45;3.47;;;2.22;;
82635;SDS011;72317;37.280;-121.948;2023-10-08T12:05:31;3.00;;;2.35;;
82635;SDS011;72317;37.280;-121.948;2023-10-08T12:07:59;4.20;;;2.20;;
82635;SDS011;72317;37.280;-121.948;2023-10-08T12:10:25;2.80;;;2.17;;
82635;SDS011;72317;37.280;-121.948;2023-10-08T12:12:52;3.88;;;1.90;;
82635;SDS011;72317;37.280;-121.948;2023-10-08T12:15:25;3.67;;;2.25;;
82635;SDS011;72317;37.280;-121.948;2023-10-08T12:18:04;3.80;;;2.47;;
82635;SDS011;72317;37.280;-121.948;2023-10-08T12:20:39;4.97;;;2.63;;
82635;SDS011;72317;37.280;-121.948;2023-10-08T12:23:09;2.88;;;2.45;;
82635;SDS011;72317;37.280;-121.948;2023-10-08T12:25:38;6.03;;;2.67;;
82635;SDS011;72317;37.280;-121.948;2023-10-08T12:28:08;5.03;;;2.53;;
82635;SDS011;72317;37.280;-121.948;2023-10-08T12:30:36;4.00;;;2.20;;
82635;SDS011;72317;37.280;-121.948;2023-10-08T12:33:07;4.22;;;2.78;;
82635;SDS011;72317;37.280;-121.948;2023-10-08T12:35:40;3.78;;;2.40;;
82635;SDS011;72317;37.280;-121.948;2023-10-08T12:38:08;4.13;;;2.40;;
82635;SDS011;72317;37.280;-121.948;2023-10-08T12:40:35;4.07;;;2.60;;
82635;SDS011;72317;37.280;-121.948;2023-10-08T12:43:12;5.07;;;2.63;;
82635;SDS011;72317;37.280;-121.948;2023-10-08T12:45:45;4.20;;;2.80;;
82635;SDS011;72317;37.280;-121.948;2023-10-08T12:48:21;4.35;;;2.40;;
82635;SDS011;72317;37.280;-121.948;2023-10-08T12:50:49;3.53;;;2.30;;
82635;SDS011;72317;37.280;-121.948;2023-10-08T12:53:22;4.32;;;2.47;;
82635;SDS011;72317;37.280;-121.948;2023-10-08T12:56:09;3.05;;;2.50;;
82635;SDS011;72317;37.280;-121.948;2023-10-08T12:58:41;7.28;;;2.45;;
82635;SDS011;72317;37.280;-121.948;2023-10-08T13:01:16;5.28;;;2.22;;
82635;SDS011;72317;37.280;-121.948;2023-10-08T13:03:43;3.15;;;2.42;;
82635;SDS011;72317;37.280;-121.948;2023-10-08T13:06:14;6.55;;;2.40;;
82635;SDS011;72317;37.280;-121.948;2023-10-08T13:08:50;3.67;;;2.30;;
82635;SDS011;72317;37.280;-121.948;2023-10-08T13:11:21;3.00;;;2.40;;
82635;SDS011;72317;37.280;-121.948;2023-10-08T13:13:49;4.22;;;2.30;;
82635;SDS011;72317;37.280;-121.948;2023-10-08T13:16:22;5.28;;;2.70;;
82635;SDS011;72317;37.280;-121.948;2023-10-08T13:18:50;3.50;;;2.60;;
82635;SDS011;72317;37.280;-121.948;2023-10-08T13:21:17;3.90;;;2.40;;
82635;SDS011;72317;37.280;-121.948;2023-10-08T13:23:53;3.63;;;2.55;;
82635;SDS011;72317;37.280;-121.948;2023-10-08T13:26:22;4.57;;;2.47;;
82635;SDS011;72317;37.280;-121.948;2023-10-08T13:28:50;5.57;;;2.80;;
82635;SDS011;72317;37.280;-121.948;2023-10-08T13:31:16;3.45;;;2.40;;
82635;SDS011;72317;37.280;-121.948;2023-10-08T13:33:44;5.50;;;2.88;;
82635;SDS011;72317;37.280;-121.948;2023-10-08T13:36:14;4.93;;;2.50;;
82635;SDS011;72317;37.280;-121.948;2023-10-08T13:38:42;3.90;;;2.50;;
82635;SDS011;72317;37.280;-121.948;2023-10-08T13:41:17;3.83;;;2.47;;
82635;SDS011;72317;37.280;-121.948;2023-10-08T13:43:44;4.30;;;2.70;;
82635;SDS011;72317;37.280;-121.948;2023-10-08T13:46:17;4.40;;;2.28;;
82635;SDS011;72317;37.280;-121.948;2023-10-08T13:48:46;2.60;;;2.40;;
82635;SDS011;72317;37.280;-121.948;2023-10-08T13:51:16;3.20;;;2.65;;
82635;SDS011;72317;37.280;-121.948;2023-10-08T13:53:49;4.60;;;2.83;;
82635;SDS011;72317;37.280;-121.948;2023-10-08T13:56:19;4.18;;;2.50;;
82635;SDS011;72317;37.280;-121.948;2023-10-08T13:58:50;4.60;;;2.92;;
82635;SDS011;72317;37.280;-121.948;2023-10-08T14:01:21;4.25;;;3.08;;
82635;SDS011;72317;37.280;-121.948;2023-10-08T14:03:48;5.75;;;3.35;;
82635;SDS011;72317;37.280;-121.948;2023-10-08T14:06:18;4.70;;;3.10;;
82635;SDS011;72317;37.280;-121.948;2023-10-08T14:08:46;5.85;;;4.10;;
82635;SDS011;72317;37.280;-121.948;2023-10-08T14:11:19;6.32;;;4.10;;
82635;SDS011;72317;37.280;-121.948;2023-10-08T14:13:49;5.60;;;3.88;;
82635;SDS011;72317;37.280;-121.948;2023-10-08T14:16:17;4.25;;;3.83;;
82635;SDS011;72317;37.280;-121.948;2023-10-08T14:18:56;6.97;;;3.80;;
82635;SDS011;72317;37.280;-121.948;2023-10-08T14:21:25;3.70;;;3.08;;
82635;SDS011;72317;37.280;-121.948;2023-10-08T14:24:09;4.72;;;3.17;;
82635;SDS011;72317;37.280;-121.948;2023-10-08T14:26:41;4.35;;;3.20;;
82635;SDS011;72317;37.280;-121.948;2023-10-08T14:29:08;8.00;;;2.83;;
82635;SDS011;72317;37.280;-121.948;2023-10-08T14:31:40;5.20;;;3.17;;
82635;SDS011;72317;37.280;-121.948;2023-10-08T14:34:09;5.22;;;3.10;;
82635;SDS011;72317;37.280;-121.948;2023-10-08T14:36:42;6.07;;;3.00;;
82635;SDS011;72317;37.280;-121.948;2023-10-08T14:39:30;7.00;;;3.22;;
82635;SDS011;72317;37.280;-121.948;2023-10-08T14:42:15;5.10;;;2.90;;
82635;SDS011;72317;37.280;-121.948;2023-10-08T14:45:00;7.25;;;3.47;;